sensor_id;sensor_type;location;lat;lon;timestamp;temperature;humidity
8709;DHT22;4391;48.678;9.280;2024-03-17T00:02:09;6.00;99.90
8709;DHT22;4391;48.678;9.280;2024-03-17T00:04:36;6.00;99.90
8709;DHT22;4391;48.678;9.280;2024-03-17T00:07:03;5.90;99.90
8709;DHT22;4391;48.678;9.280;2024-03-17T00:09:30;5.90;99.90
8709;DHT22;4391;48.678;9.280;2024-03-17T00:11:56;5.90;99.90
8709;DHT22;4391;48.678;9.280;2024-03-17T00:14:24;5.80;99.90
8709;DHT22;4391;48.678;9.280;2024-03-17T00:16:50;5.80;99.90
8709;DHT22;4391;48.678;9.280;2024-03-17T00:19:17;5.80;99.90
8709;DHT22;4391;48.678;9.280;2024-03-17T00:21:43;5.90;99.90
8709;DHT22;4391;48.678;9.280;2024-03-17T00:24:12;5.90;99.90
8709;DHT22;4391;48.678;9.280;2024-03-17T00:26:39;5.80;99.90
8709;DHT22;4391;48.678;9.280;2024-03-17T00:29:06;5.80;99.90
8709;DHT22;4391;48.678;9.280;2024-03-17T00:31:32;5.80;99.90
8709;DHT22;4391;48.678;9.280;2024-03-17T00:33:58;5.70;99.90
8709;DHT22;4391;48.678;9.280;2024-03-17T00:36:24;5.70;99.90
8709;DHT22;4391;48.678;9.280;2024-03-17T00:38:51;5.60;99.90
8709;DHT22;4391;48.678;9.280;2024-03-17T00:41:19;5.70;99.90
8709;DHT22;4391;48.678;9.280;2024-03-17T00:43:47;5.70;99.90
8709;DHT22;4391;48.678;9.280;2024-03-17T00:46:12;5.80;99.90
8709;DHT22;4391;48.678;9.280;2024-03-17T00:48:39;5.90;99.90
8709;DHT22;4391;48.678;9.280;2024-03-17T00:51:05;5.90;99.90
8709;DHT22;4391;48.678;9.280;2024-03-17T00:53:32;6.00;99.90
8709;DHT22;4391;48.678;9.280;2024-03-17T00:55:58;6.00;99.90
8709;DHT22;4391;48.678;9.280;2024-03-17T00:58:27;6.00;99.90
8709;DHT22;4391;48.678;9.280;2024-03-17T01:00:53;5.90;99.90
8709;DHT22;4391;48.678;9.280;2024-03-17T01:03:19;5.90;99.90
8709;DHT22;4391;48.678;9.280;2024-03-17T01:05:45;5.90;99.90
8709;DHT22;4391;48.678;9.280;2024-03-17T01:08:13;6.00;99.90
8709;DHT22;4391;48.678;9.280;2024-03-17T01:10:39;5.90;99.90
8709;DHT22;4391;48.678;9.280;2024-03-17T01:13:06;5.90;99.90
8709;DHT22;4391;48.678;9.280;2024-03-17T01:15:35;5.80;99.90
8709;DHT22;4391;48.678;9.280;2024-03-17T01:18:02;5.80;99.90
8709;DHT22;4391;48.678;9.280;2024-03-17T01:20:30;5.80;99.90
8709;DHT22;4391;48.678;9.280;2024-03-17T01:22:56;5.70;99.90
8709;DHT22;4391;48.678;9.280;2024-03-17T01:25:22;5.70;99.90
8709;DHT22;4391;48.678;9.280;2024-03-17T01:27:51;5.80;99.90
8709;DHT22;4391;48.678;9.280;2024-03-17T01:30:16;5.80;99.90
8709;DHT22;4391;48.678;9.280;2024-03-17T01:32:46;5.90;99.90
8709;DHT22;4391;48.678;9.280;2024-03-17T01:35:12;6.00;99.90
8709;DHT22;4391;48.678;9.280;2024-03-17T01:37:39;6.00;99.90
8709;DHT22;4391;48.678;9.280;2024-03-17T01:40:06;6.10;99.90
8709;DHT22;4391;48.678;9.280;2024-03-17T01:42:34;6.10;99.90
8709;DHT22;4391;48.678;9.280;2024-03-17T01:45:00;6.20;99.90
8709;DHT22;4391;48.678;9.280;2024-03-17T01:47:27;6.20;99.90
8709;DHT22;4391;48.678;9.280;2024-03-17T01:49:55;6.30;99.90
8709;DHT22;4391;48.678;9.280;2024-03-17T01:52:22;6.30;99.90
8709;DHT22;4391;48.678;9.280;2024-03-17T01:54:48;6.40;99.90
8709;DHT22;4391;48.678;9.280;2024-03-17T01:57:15;6.30;99.90
8709;DHT22;4391;48.678;9.280;2024-03-17T01:59:41;6.40;99.90
8709;DHT22;4391;48.678;9.280;2024-03-17T02:02:07;6.30;99.90
8709;DHT22;4391;48.678;9.280;2024-03-17T02:04:33;6.40;99.90
8709;DHT22;4391;48.678;9.280;2024-03-17T02:07:02;6.40;99.90
8709;DHT22;4391;48.678;9.280;2024-03-17T02:09:27;6.40;99.90
8709;DHT22;4391;48.678;9.280;2024-03-17T02:11:54;6.40;99.90
8709;DHT22;4391;48.678;9.280;2024-03-17T02:14:20;6.50;99.90
8709;DHT22;4391;48.678;9.280;2024-03-17T02:16:47;6.40;99.90
8709;DHT22;4391;48.678;9.280;2024-03-17T02:19:13;6.50;99.90
8709;DHT22;4391;48.678;9.280;2024-03-17T02:21:40;6.50;99.90
8709;DHT22;4391;48.678;9.280;2024-03-17T02:24:09;6.50;99.90
8709;DHT22;4391;48.678;9.280;2024-03-17T02:26:36;6.50;99.90
8709;DHT22;4391;48.678;9.280;2024-03-17T02:29:03;6.50;99.90
8709;DHT22;4391;48.678;9.280;2024-03-17T02:31:30;6.50;99.90
8709;DHT22;4391;48.678;9.280;2024-03-17T02:33:56;6.50;99.90
8709;DHT22;4391;48.678;9.280;2024-03-17T02:36:23;6.50;99.90
8709;DHT22;4391;48.678;9.280;2024-03-17T02:38:49;6.40;99.90
8709;DHT22;4391;48.678;9.280;2024-03-17T02:41:34;6.40;99.90
8709;DHT22;4391;48.678;9.280;2024-03-17T02:44:01;6.40;99.90
8709;DHT22;4391;48.678;9.280;2024-03-17T02:46:28;6.40;99.90
8709;DHT22;4391;48.678;9.280;2024-03-17T02:48:55;6.30;99.90
8709;DHT22;4391;48.678;9.280;2024-03-17T02:51:22;6.30;99.90
8709;DHT22;4391;48.678;9.280;2024-03-17T02:53:50;6.20;99.90
8709;DHT22;4391;48.678;9.280;2024-03-17T02:56:17;6.20;99.90
8709;DHT22;4391;48.678;9.280;2024-03-17T02:58:48;6.20;99.90
8709;DHT22;4391;48.678;9.280;2024-03-17T03:01:16;6.20;99.90
8709;DHT22;4391;48.678;9.280;2024-03-17T03:03:43;6.20;99.90
8709;DHT22;4391;48.678;9.280;2024-03-17T03:06:10;6.20;99.90
8709;DHT22;4391;48.678;9.280;2024-03-17T03:08:38;6.20;99.90
8709;DHT22;4391;48.678;9.280;2024-03-17T03:11:08;6.20;99.90
8709;DHT22;4391;48.678;9.280;2024-03-17T03:13:37;6.20;99.90
8709;DHT22;4391;48.678;9.280;2024-03-17T03:16:07;6.20;99.90
8709;DHT22;4391;48.678;9.280;2024-03-17T03:18:34;6.20;99.90
8709;DHT22;4391;48.678;9.280;2024-03-17T03:21:01;6.20;99.90
8709;DHT22;4391;48.678;9.280;2024-03-17T03:23:28;6.20;99.90
8709;DHT22;4391;48.678;9.280;2024-03-17T03:25:55;6.30;99.90
8709;DHT22;4391;48.678;9.280;2024-03-17T03:28:23;6.30;99.90
8709;DHT22;4391;48.678;9.280;2024-03-17T03:30:50;6.30;99.90
8709;DHT22;4391;48.678;9.280;2024-03-17T03:33:19;6.30;99.90
8709;DHT22;4391;48.678;9.280;2024-03-17T03:35:46;6.30;99.90
8709;DHT22;4391;48.678;9.280;2024-03-17T03:38:13;6.30;99.90
8709;DHT22;4391;48.678;9.280;2024-03-17T03:40:40;6.30;99.90
8709;DHT22;4391;48.678;9.280;2024-03-17T03:43:07;6.30;99.90
8709;DHT22;4391;48.678;9.280;2024-03-17T03:45:34;6.30;99.90
8709;DHT22;4391;48.678;9.280;2024-03-17T03:48:04;6.30;99.90
8709;DHT22;4391;48.678;9.280;2024-03-17T03:50:32;6.30;99.90
8709;DHT22;4391;48.678;9.280;2024-03-17T03:52:59;6.20;99.90
8709;DHT22;4391;48.678;9.280;2024-03-17T03:55:26;6.20;99.90
8709;DHT22;4391;48.678;9.280;2024-03-17T03:57:57;6.10;99.90
8709;DHT22;4391;48.678;9.280;2024-03-17T04:00:24;6.10;99.90
8709;DHT22;4391;48.678;9.280;2024-03-17T04:02:55;6.00;99.90
8709;DHT22;4391;48.678;9.280;2024-03-17T04:05:22;5.90;99.90
8709;DHT22;4391;48.678;9.280;2024-03-17T04:07:50;5.90;99.90
8709;DHT22;4391;48.678;9.280;2024-03-17T04:10:17;5.90;99.90
8709;DHT22;4391;48.678;9.280;2024-03-17T04:12:46;5.90;99.90
8709;DHT22;4391;48.678;9.280;2024-03-17T04:15:13;6.00;99.90
8709;DHT22;4391;48.678;9.280;2024-03-17T04:17:40;6.00;99.90
8709;DHT22;4391;48.678;9.280;2024-03-17T04:20:08;6.00;99.90
8709;DHT22;4391;48.678;9.280;2024-03-17T04:22:39;6.00;99.90
8709;DHT22;4391;48.678;9.280;2024-03-17T04:25:08;6.00;99.90
8709;DHT22;4391;48.678;9.280;2024-03-17T04:27:35;6.00;99.90
8709;DHT22;4391;48.678;9.280;2024-03-17T04:30:02;6.10;99.90
8709;DHT22;4391;48.678;9.280;2024-03-17T04:32:31;6.00;99.90
8709;DHT22;4391;48.678;9.280;2024-03-17T04:34:58;6.00;99.90
8709;DHT22;4391;48.678;9.280;2024-03-17T04:37:25;6.00;99.90
8709;DHT22;4391;48.678;9.280;2024-03-17T04:39:52;6.00;99.90
8709;DHT22;4391;48.678;9.280;2024-03-17T04:42:24;6.00;99.90
8709;DHT22;4391;48.678;9.280;2024-03-17T04:44:51;5.90;99.90
8709;DHT22;4391;48.678;9.280;2024-03-17T04:47:18;5.90;99.90
8709;DHT22;4391;48.678;9.280;2024-03-17T04:49:45;5.80;99.90
8709;DHT22;4391;48.678;9.280;2024-03-17T04:52:13;5.80;99.90
8709;DHT22;4391;48.678;9.280;2024-03-17T04:54:42;5.80;99.90
8709;DHT22;4391;48.678;9.280;2024-03-17T04:57:09;5.70;99.90
8709;DHT22;4391;48.678;9.280;2024-03-17T04:59:37;5.80;99.90
8709;DHT22;4391;48.678;9.280;2024-03-17T05:02:05;5.80;99.90
8709;DHT22;4391;48.678;9.280;2024-03-17T05:04:31;5.80;99.90
8709;DHT22;4391;48.678;9.280;2024-03-17T05:06:58;5.70;99.90
8709;DHT22;4391;48.678;9.280;2024-03-17T05:09:25;5.70;99.90
8709;DHT22;4391;48.678;9.280;2024-03-17T05:11:52;5.70;99.90
8709;DHT22;4391;48.678;9.280;2024-03-17T05:14:19;5.70;99.90
8709;DHT22;4391;48.678;9.280;2024-03-17T05:16:49;5.70;99.90
8709;DHT22;4391;48.678;9.280;2024-03-17T05:19:19;5.60;99.90
8709;DHT22;4391;48.678;9.280;2024-03-17T05:21:46;5.60;99.90
8709;DHT22;4391;48.678;9.280;2024-03-17T05:24:13;5.60;99.90
8709;DHT22;4391;48.678;9.280;2024-03-17T05:26:40;5.60;99.90
8709;DHT22;4391;48.678;9.280;2024-03-17T05:29:07;5.50;99.90
8709;DHT22;4391;48.678;9.280;2024-03-17T05:31:34;5.50;99.90
8709;DHT22;4391;48.678;9.280;2024-03-17T05:34:02;5.60;99.90
8709;DHT22;4391;48.678;9.280;2024-03-17T05:36:30;5.50;99.90
8709;DHT22;4391;48.678;9.280;2024-03-17T05:38:59;5.50;99.90
8709;DHT22;4391;48.678;9.280;2024-03-17T05:41:26;5.50;99.90
8709;DHT22;4391;48.678;9.280;2024-03-17T05:43:54;5.50;99.90
8709;DHT22;4391;48.678;9.280;2024-03-17T05:46:24;5.50;99.90
8709;DHT22;4391;48.678;9.280;2024-03-17T05:48:51;5.50;99.90
8709;DHT22;4391;48.678;9.280;2024-03-17T05:51:19;5.60;99.90
8709;DHT22;4391;48.678;9.280;2024-03-17T05:53:46;5.60;99.90
8709;DHT22;4391;48.678;9.280;2024-03-17T05:56:13;5.60;99.90
8709;DHT22;4391;48.678;9.280;2024-03-17T05:58:41;5.60;99.90
8709;DHT22;4391;48.678;9.280;2024-03-17T06:01:09;5.60;99.90
8709;DHT22;4391;48.678;9.280;2024-03-17T06:03:37;5.70;99.90
8709;DHT22;4391;48.678;9.280;2024-03-17T06:06:05;5.70;99.90
8709;DHT22;4391;48.678;9.280;2024-03-17T06:08:36;5.80;99.90
8709;DHT22;4391;48.678;9.280;2024-03-17T06:11:04;5.80;99.90
8709;DHT22;4391;48.678;9.280;2024-03-17T06:13:31;5.90;99.90
8709;DHT22;4391;48.678;9.280;2024-03-17T06:15:58;6.00;99.90
8709;DHT22;4391;48.678;9.280;2024-03-17T06:18:27;6.00;99.90
8709;DHT22;4391;48.678;9.280;2024-03-17T06:20:54;6.00;99.90
8709;DHT22;4391;48.678;9.280;2024-03-17T06:23:23;5.90;99.90
8709;DHT22;4391;48.678;9.280;2024-03-17T06:25:52;5.90;99.90
8709;DHT22;4391;48.678;9.280;2024-03-17T06:28:20;5.90;99.90
8709;DHT22;4391;48.678;9.280;2024-03-17T06:30:54;6.00;99.90
8709;DHT22;4391;48.678;9.280;2024-03-17T06:33:21;6.10;99.90
8709;DHT22;4391;48.678;9.280;2024-03-17T06:35:48;6.30;99.90
8709;DHT22;4391;48.678;9.280;2024-03-17T06:38:15;6.60;99.90
8709;DHT22;4391;48.678;9.280;2024-03-17T06:40:47;6.80;99.90
8709;DHT22;4391;48.678;9.280;2024-03-17T06:43:15;7.00;99.90
8709;DHT22;4391;48.678;9.280;2024-03-17T06:45:42;7.10;99.90
8709;DHT22;4391;48.678;9.280;2024-03-17T06:48:09;7.20;99.90
8709;DHT22;4391;48.678;9.280;2024-03-17T06:50:37;7.30;99.90
8709;DHT22;4391;48.678;9.280;2024-03-17T06:53:07;7.40;99.90
8709;DHT22;4391;48.678;9.280;2024-03-17T06:55:35;7.40;99.90
8709;DHT22;4391;48.678;9.280;2024-03-17T06:58:02;7.50;99.90
8709;DHT22;4391;48.678;9.280;2024-03-17T07:00:30;7.50;99.90
8709;DHT22;4391;48.678;9.280;2024-03-17T07:02:57;7.60;99.90
8709;DHT22;4391;48.678;9.280;2024-03-17T07:05:25;7.80;96.00
8709;DHT22;4391;48.678;9.280;2024-03-17T07:07:52;7.90;88.10
8709;DHT22;4391;48.678;9.280;2024-03-17T07:10:18;8.00;93.30
8709;DHT22;4391;48.678;9.280;2024-03-17T07:12:45;8.20;49.30
8709;DHT22;4391;48.678;9.280;2024-03-17T07:15:12;8.40;53.30
8709;DHT22;4391;48.678;9.280;2024-03-17T07:17:40;8.50;44.10
8709;DHT22;4391;48.678;9.280;2024-03-17T07:20:08;8.70;30.30
8709;DHT22;4391;48.678;9.280;2024-03-17T07:22:38;8.70;1.00
8709;DHT22;4391;48.678;9.280;2024-03-17T07:25:05;8.70;7.60
8709;DHT22;4391;48.678;9.280;2024-03-17T07:27:32;8.60;15.20
8709;DHT22;4391;48.678;9.280;2024-03-17T07:29:59;8.50;20.80
8709;DHT22;4391;48.678;9.280;2024-03-17T07:32:26;8.60;31.40
8709;DHT22;4391;48.678;9.280;2024-03-17T07:34:54;8.60;3.70
8709;DHT22;4391;48.678;9.280;2024-03-17T07:37:21;8.70;12.60
8709;DHT22;4391;48.678;9.280;2024-03-17T07:39:48;9.00;1.00
8709;DHT22;4391;48.678;9.280;2024-03-17T07:42:15;9.20;1.00
8709;DHT22;4391;48.678;9.280;2024-03-17T07:44:44;9.50;1.00
8709;DHT22;4391;48.678;9.280;2024-03-17T07:47:11;9.70;1.00
8709;DHT22;4391;48.678;9.280;2024-03-17T07:49:38;9.90;99.90
8709;DHT22;4391;48.678;9.280;2024-03-17T07:52:06;10.00;99.90
8709;DHT22;4391;48.678;9.280;2024-03-17T07:54:33;10.00;99.90
8709;DHT22;4391;48.678;9.280;2024-03-17T07:57:01;9.90;99.90
8709;DHT22;4391;48.678;9.280;2024-03-17T07:59:28;10.00;1.00
8709;DHT22;4391;48.678;9.280;2024-03-17T08:01:56;10.20;99.90
8709;DHT22;4391;48.678;9.280;2024-03-17T08:04:23;10.30;1.00
8709;DHT22;4391;48.678;9.280;2024-03-17T08:06:50;10.60;99.90
8709;DHT22;4391;48.678;9.280;2024-03-17T08:09:18;10.80;1.00
8709;DHT22;4391;48.678;9.280;2024-03-17T08:11:45;11.00;39.50
8709;DHT22;4391;48.678;9.280;2024-03-17T08:14:12;11.00;35.50
8709;DHT22;4391;48.678;9.280;2024-03-17T08:16:40;11.10;1.00
8709;DHT22;4391;48.678;9.280;2024-03-17T08:19:07;11.10;99.90
8709;DHT22;4391;48.678;9.280;2024-03-17T08:21:34;11.30;99.90
8709;DHT22;4391;48.678;9.280;2024-03-17T08:24:01;11.30;99.90
8709;DHT22;4391;48.678;9.280;2024-03-17T08:26:29;11.20;2.80
8709;DHT22;4391;48.678;9.280;2024-03-17T08:28:56;11.30;99.90
8709;DHT22;4391;48.678;9.280;2024-03-17T08:31:23;11.30;1.00
8709;DHT22;4391;48.678;9.280;2024-03-17T08:33:50;11.40;68.10
8709;DHT22;4391;48.678;9.280;2024-03-17T08:36:18;11.50;99.90
8709;DHT22;4391;48.678;9.280;2024-03-17T08:38:46;11.50;1.00
8709;DHT22;4391;48.678;9.280;2024-03-17T08:41:14;11.70;99.90
8709;DHT22;4391;48.678;9.280;2024-03-17T08:43:43;11.70;1.00
8709;DHT22;4391;48.678;9.280;2024-03-17T08:46:11;11.80;1.00
8709;DHT22;4391;48.678;9.280;2024-03-17T08:48:40;11.90;99.90
8709;DHT22;4391;48.678;9.280;2024-03-17T08:51:08;11.90;99.90
8709;DHT22;4391;48.678;9.280;2024-03-17T08:53:35;12.00;99.90
8709;DHT22;4391;48.678;9.280;2024-03-17T08:56:03;12.20;99.90
8709;DHT22;4391;48.678;9.280;2024-03-17T08:58:32;12.50;1.00
8709;DHT22;4391;48.678;9.280;2024-03-17T09:01:03;12.90;99.90
8709;DHT22;4391;48.678;9.280;2024-03-17T09:03:30;13.40;99.90
8709;DHT22;4391;48.678;9.280;2024-03-17T09:05:57;13.80;1.00
8709;DHT22;4391;48.678;9.280;2024-03-17T09:08:24;14.20;99.90
8709;DHT22;4391;48.678;9.280;2024-03-17T09:10:53;14.50;99.90
8709;DHT22;4391;48.678;9.280;2024-03-17T09:13:20;14.70;29.70
8709;DHT22;4391;48.678;9.280;2024-03-17T09:15:53;14.80;68.60
8709;DHT22;4391;48.678;9.280;2024-03-17T09:18:22;15.20;16.80
8709;DHT22;4391;48.678;9.280;2024-03-17T09:20:58;15.30;5.60
8709;DHT22;4391;48.678;9.280;2024-03-17T09:23:25;15.40;1.00
8709;DHT22;4391;48.678;9.280;2024-03-17T09:25:57;15.50;1.00
8709;DHT22;4391;48.678;9.280;2024-03-17T09:28:24;15.40;1.00
8709;DHT22;4391;48.678;9.280;2024-03-17T09:30:50;15.40;1.00
8709;DHT22;4391;48.678;9.280;2024-03-17T09:33:19;15.50;1.00
8709;DHT22;4391;48.678;9.280;2024-03-17T09:35:54;15.70;1.00
8709;DHT22;4391;48.678;9.280;2024-03-17T09:38:21;15.70;1.00
8709;DHT22;4391;48.678;9.280;2024-03-17T09:40:48;15.80;1.00
8709;DHT22;4391;48.678;9.280;2024-03-17T09:43:19;15.90;1.00
8709;DHT22;4391;48.678;9.280;2024-03-17T09:45:46;16.00;1.00
8709;DHT22;4391;48.678;9.280;2024-03-17T09:48:15;16.00;1.00
8709;DHT22;4391;48.678;9.280;2024-03-17T09:53:16;15.80;1.00
8709;DHT22;4391;48.678;9.280;2024-03-17T09:55:43;15.90;1.00
8709;DHT22;4391;48.678;9.280;2024-03-17T09:58:15;15.80;1.00
8709;DHT22;4391;48.678;9.280;2024-03-17T10:00:42;15.70;1.00
8709;DHT22;4391;48.678;9.280;2024-03-17T10:03:09;15.70;99.90
8709;DHT22;4391;48.678;9.280;2024-03-17T10:05:35;15.60;99.90
8709;DHT22;4391;48.678;9.280;2024-03-17T10:08:03;15.60;99.90
8709;DHT22;4391;48.678;9.280;2024-03-17T10:10:33;15.70;99.90
8709;DHT22;4391;48.678;9.280;2024-03-17T10:13:00;15.70;99.90
8709;DHT22;4391;48.678;9.280;2024-03-17T10:15:26;15.80;99.90
8709;DHT22;4391;48.678;9.280;2024-03-17T10:17:53;16.10;99.90
8709;DHT22;4391;48.678;9.280;2024-03-17T10:20:23;16.30;99.90
8709;DHT22;4391;48.678;9.280;2024-03-17T10:22:58;16.80;99.90
8709;DHT22;4391;48.678;9.280;2024-03-17T10:25:24;17.20;99.90
8709;DHT22;4391;48.678;9.280;2024-03-17T10:27:53;17.40;99.90
8709;DHT22;4391;48.678;9.280;2024-03-17T10:30:21;17.20;99.90
8709;DHT22;4391;48.678;9.280;2024-03-17T10:32:53;16.90;99.90
8709;DHT22;4391;48.678;9.280;2024-03-17T10:35:29;16.90;99.90
8709;DHT22;4391;48.678;9.280;2024-03-17T10:37:58;16.80;99.90
8709;DHT22;4391;48.678;9.280;2024-03-17T10:40:26;16.80;99.90
8709;DHT22;4391;48.678;9.280;2024-03-17T10:42:55;17.00;99.90
8709;DHT22;4391;48.678;9.280;2024-03-17T10:45:22;17.50;99.90
8709;DHT22;4391;48.678;9.280;2024-03-17T10:47:51;18.10;99.90
8709;DHT22;4391;48.678;9.280;2024-03-17T10:50:20;18.40;99.90
8709;DHT22;4391;48.678;9.280;2024-03-17T10:52:48;18.80;99.90
8709;DHT22;4391;48.678;9.280;2024-03-17T10:55:23;18.80;99.90
8709;DHT22;4391;48.678;9.280;2024-03-17T10:57:51;19.20;99.90
8709;DHT22;4391;48.678;9.280;2024-03-17T11:00:21;19.10;99.90
8709;DHT22;4391;48.678;9.280;2024-03-17T11:02:49;19.00;99.90
8709;DHT22;4391;48.678;9.280;2024-03-17T11:05:19;19.00;99.90
8709;DHT22;4391;48.678;9.280;2024-03-17T11:07:48;19.50;99.90
8709;DHT22;4391;48.678;9.280;2024-03-17T11:10:18;20.60;99.90
8709;DHT22;4391;48.678;9.280;2024-03-17T11:12:46;21.30;99.90
8709;DHT22;4391;48.678;9.280;2024-03-17T11:15:37;21.40;99.90
8709;DHT22;4391;48.678;9.280;2024-03-17T11:18:36;21.00;99.90
8709;DHT22;4391;48.678;9.280;2024-03-17T11:21:18;20.20;99.90
8709;DHT22;4391;48.678;9.280;2024-03-17T11:23:55;19.70;99.90
8709;DHT22;4391;48.678;9.280;2024-03-17T11:26:28;18.80;99.90
8709;DHT22;4391;48.678;9.280;2024-03-17T11:28:55;18.30;99.90
8709;DHT22;4391;48.678;9.280;2024-03-17T11:31:42;17.90;99.90
8709;DHT22;4391;48.678;9.280;2024-03-17T11:34:35;18.00;99.90
8709;DHT22;4391;48.678;9.280;2024-03-17T11:37:05;18.50;99.90
8709;DHT22;4391;48.678;9.280;2024-03-17T11:39:51;18.70;99.90
8709;DHT22;4391;48.678;9.280;2024-03-17T11:42:22;18.70;99.90
8709;DHT22;4391;48.678;9.280;2024-03-17T11:45:00;19.20;99.90
8709;DHT22;4391;48.678;9.280;2024-03-17T11:47:38;19.60;99.90
8709;DHT22;4391;48.678;9.280;2024-03-17T11:50:07;19.60;99.90
8709;DHT22;4391;48.678;9.280;2024-03-17T11:52:36;19.50;99.90
8709;DHT22;4391;48.678;9.280;2024-03-17T11:55:03;19.10;99.90
8709;DHT22;4391;48.678;9.280;2024-03-17T11:57:30;18.60;99.90
8709;DHT22;4391;48.678;9.280;2024-03-17T11:59:56;18.70;99.90
8709;DHT22;4391;48.678;9.280;2024-03-17T12:02:25;19.00;99.90
8709;DHT22;4391;48.678;9.280;2024-03-17T12:04:53;19.50;99.90
8709;DHT22;4391;48.678;9.280;2024-03-17T12:07:21;19.60;99.90
8709;DHT22;4391;48.678;9.280;2024-03-17T12:09:49;19.10;99.90
8709;DHT22;4391;48.678;9.280;2024-03-17T12:12:18;18.70;99.90
8709;DHT22;4391;48.678;9.280;2024-03-17T12:14:45;18.90;99.90
8709;DHT22;4391;48.678;9.280;2024-03-17T12:17:14;18.50;99.90
8709;DHT22;4391;48.678;9.280;2024-03-17T12:19:41;18.10;99.90
8709;DHT22;4391;48.678;9.280;2024-03-17T12:22:16;18.10;99.90
8709;DHT22;4391;48.678;9.280;2024-03-17T12:24:43;18.10;99.90
8709;DHT22;4391;48.678;9.280;2024-03-17T12:27:17;18.30;99.90
8709;DHT22;4391;48.678;9.280;2024-03-17T12:29:43;18.20;99.90
8709;DHT22;4391;48.678;9.280;2024-03-17T12:32:14;18.20;99.90
8709;DHT22;4391;48.678;9.280;2024-03-17T12:34:40;18.20;99.90
8709;DHT22;4391;48.678;9.280;2024-03-17T12:37:08;18.20;99.90
8709;DHT22;4391;48.678;9.280;2024-03-17T12:39:35;17.80;99.90
8709;DHT22;4391;48.678;9.280;2024-03-17T12:42:05;17.70;99.90
8709;DHT22;4391;48.678;9.280;2024-03-17T12:44:33;17.30;99.90
8709;DHT22;4391;48.678;9.280;2024-03-17T12:47:01;16.80;99.90
8709;DHT22;4391;48.678;9.280;2024-03-17T12:49:29;16.30;99.90
8709;DHT22;4391;48.678;9.280;2024-03-17T12:51:56;16.10;99.90
8709;DHT22;4391;48.678;9.280;2024-03-17T12:54:23;16.00;99.90
8709;DHT22;4391;48.678;9.280;2024-03-17T12:57:03;15.80;99.90
8709;DHT22;4391;48.678;9.280;2024-03-17T12:59:48;15.70;99.90
8709;DHT22;4391;48.678;9.280;2024-03-17T13:02:32;15.80;99.90
8709;DHT22;4391;48.678;9.280;2024-03-17T13:05:06;15.70;99.90
8709;DHT22;4391;48.678;9.280;2024-03-17T13:07:35;15.70;99.90
8709;DHT22;4391;48.678;9.280;2024-03-17T13:10:02;15.50;99.90
8709;DHT22;4391;48.678;9.280;2024-03-17T13:12:31;15.40;99.90
8709;DHT22;4391;48.678;9.280;2024-03-17T13:14:57;15.40;99.90
8709;DHT22;4391;48.678;9.280;2024-03-17T13:17:24;15.40;99.90
8709;DHT22;4391;48.678;9.280;2024-03-17T13:19:51;15.60;99.90
8709;DHT22;4391;48.678;9.280;2024-03-17T13:22:18;15.80;99.90
8709;DHT22;4391;48.678;9.280;2024-03-17T13:24:45;15.90;99.90
8709;DHT22;4391;48.678;9.280;2024-03-17T13:27:12;15.90;99.90
8709;DHT22;4391;48.678;9.280;2024-03-17T13:29:41;16.20;99.90
8709;DHT22;4391;48.678;9.280;2024-03-17T13:32:10;16.10;99.90
8709;DHT22;4391;48.678;9.280;2024-03-17T13:34:36;16.10;99.90
8709;DHT22;4391;48.678;9.280;2024-03-17T13:37:03;15.90;99.90
8709;DHT22;4391;48.678;9.280;2024-03-17T13:39:30;15.80;99.90
8709;DHT22;4391;48.678;9.280;2024-03-17T13:41:59;15.60;99.90
8709;DHT22;4391;48.678;9.280;2024-03-17T13:44:28;15.70;99.90
8709;DHT22;4391;48.678;9.280;2024-03-17T13:46:57;15.80;99.90
8709;DHT22;4391;48.678;9.280;2024-03-17T13:49:25;15.90;99.90
8709;DHT22;4391;48.678;9.280;2024-03-17T13:51:52;16.20;99.90
8709;DHT22;4391;48.678;9.280;2024-03-17T13:54:19;16.30;99.90
8709;DHT22;4391;48.678;9.280;2024-03-17T13:56:47;16.50;99.90
8709;DHT22;4391;48.678;9.280;2024-03-17T13:59:14;16.40;99.90
8709;DHT22;4391;48.678;9.280;2024-03-17T14:01:41;16.80;99.90
8709;DHT22;4391;48.678;9.280;2024-03-17T14:04:13;17.00;99.90
8709;DHT22;4391;48.678;9.280;2024-03-17T14:06:41;17.20;99.90
8709;DHT22;4391;48.678;9.280;2024-03-17T14:09:08;17.10;99.90
8709;DHT22;4391;48.678;9.280;2024-03-17T14:11:36;17.10;99.90
8709;DHT22;4391;48.678;9.280;2024-03-17T14:14:04;17.40;99.90
8709;DHT22;4391;48.678;9.280;2024-03-17T14:16:31;17.60;99.90
8709;DHT22;4391;48.678;9.280;2024-03-17T14:18:59;17.70;99.90
8709;DHT22;4391;48.678;9.280;2024-03-17T14:21:28;17.90;99.90
8709;DHT22;4391;48.678;9.280;2024-03-17T14:23:55;18.30;99.90
8709;DHT22;4391;48.678;9.280;2024-03-17T14:26:22;19.00;99.90
8709;DHT22;4391;48.678;9.280;2024-03-17T14:28:51;19.70;99.90
8709;DHT22;4391;48.678;9.280;2024-03-17T14:31:20;19.70;99.90
8709;DHT22;4391;48.678;9.280;2024-03-17T14:33:47;19.30;99.90
8709;DHT22;4391;48.678;9.280;2024-03-17T14:36:13;19.20;99.90
8709;DHT22;4391;48.678;9.280;2024-03-17T14:38:42;18.90;99.90
8709;DHT22;4391;48.678;9.280;2024-03-17T14:41:09;18.50;99.90
8709;DHT22;4391;48.678;9.280;2024-03-17T14:43:37;18.40;99.90
8709;DHT22;4391;48.678;9.280;2024-03-17T14:46:05;18.70;99.90
8709;DHT22;4391;48.678;9.280;2024-03-17T14:48:33;18.70;99.90
8709;DHT22;4391;48.678;9.280;2024-03-17T14:51:01;18.70;99.90
8709;DHT22;4391;48.678;9.280;2024-03-17T14:53:28;18.70;99.90
8709;DHT22;4391;48.678;9.280;2024-03-17T14:55:56;18.70;99.90
8709;DHT22;4391;48.678;9.280;2024-03-17T14:58:24;18.60;99.90
8709;DHT22;4391;48.678;9.280;2024-03-17T15:00:51;18.40;99.90
8709;DHT22;4391;48.678;9.280;2024-03-17T15:03:18;18.10;99.90
8709;DHT22;4391;48.678;9.280;2024-03-17T15:05:45;18.10;99.90
8709;DHT22;4391;48.678;9.280;2024-03-17T15:08:12;18.20;99.90
8709;DHT22;4391;48.678;9.280;2024-03-17T15:10:39;18.30;99.90
8709;DHT22;4391;48.678;9.280;2024-03-17T15:13:07;18.10;99.90
8709;DHT22;4391;48.678;9.280;2024-03-17T15:15:35;17.70;99.90
8709;DHT22;4391;48.678;9.280;2024-03-17T15:18:03;17.50;99.90
8709;DHT22;4391;48.678;9.280;2024-03-17T15:20:30;17.20;99.90
8709;DHT22;4391;48.678;9.280;2024-03-17T15:23:00;16.90;99.90
8709;DHT22;4391;48.678;9.280;2024-03-17T15:25:27;16.60;99.90
8709;DHT22;4391;48.678;9.280;2024-03-17T15:27:54;16.40;99.90
8709;DHT22;4391;48.678;9.280;2024-03-17T15:30:22;16.20;99.90
8709;DHT22;4391;48.678;9.280;2024-03-17T15:32:51;16.10;99.90
8709;DHT22;4391;48.678;9.280;2024-03-17T15:35:20;15.90;99.90
8709;DHT22;4391;48.678;9.280;2024-03-17T15:37:47;15.70;99.90
8709;DHT22;4391;48.678;9.280;2024-03-17T15:40:14;15.50;99.90
8709;DHT22;4391;48.678;9.280;2024-03-17T15:42:43;15.40;99.90
8709;DHT22;4391;48.678;9.280;2024-03-17T15:45:11;15.40;99.90
8709;DHT22;4391;48.678;9.280;2024-03-17T15:47:39;15.30;99.90
8709;DHT22;4391;48.678;9.280;2024-03-17T15:50:07;15.20;99.90
8709;DHT22;4391;48.678;9.280;2024-03-17T15:52:34;15.10;99.90
8709;DHT22;4391;48.678;9.280;2024-03-17T15:55:02;15.00;99.90
8709;DHT22;4391;48.678;9.280;2024-03-17T15:57:30;14.80;99.90
8709;DHT22;4391;48.678;9.280;2024-03-17T15:59:57;14.70;99.90
8709;DHT22;4391;48.678;9.280;2024-03-17T16:02:25;14.50;99.90
8709;DHT22;4391;48.678;9.280;2024-03-17T16:04:55;14.40;99.90
8709;DHT22;4391;48.678;9.280;2024-03-17T16:07:22;14.30;99.90
8709;DHT22;4391;48.678;9.280;2024-03-17T16:09:50;14.20;99.90
8709;DHT22;4391;48.678;9.280;2024-03-17T16:12:17;14.10;99.90
8709;DHT22;4391;48.678;9.280;2024-03-17T16:14:46;14.10;99.90
8709;DHT22;4391;48.678;9.280;2024-03-17T16:17:15;14.00;99.90
8709;DHT22;4391;48.678;9.280;2024-03-17T16:19:42;14.00;99.90
8709;DHT22;4391;48.678;9.280;2024-03-17T16:22:13;13.90;99.90